createdAt,value
2022-12-05T00:01:22.339Z,30.87
2022-12-05T00:05:22.632Z,31.03
2022-12-05T00:09:22.781Z,30.57
2022-12-05T00:13:22.910Z,28.67
2022-12-05T00:17:25.728Z,28.53
2022-12-05T00:21:30.374Z,28.60
2022-12-05T00:25:31.230Z,29.20
2022-12-05T00:29:31.355Z,26.33
2022-12-05T00:33:34.191Z,28.20
2022-12-05T00:37:34.361Z,28.43
2022-12-05T00:41:34.787Z,28.27
2022-12-05T00:45:36.155Z,26.20
2022-12-05T00:49:38.929Z,25.80
2022-12-05T00:53:39.322Z,28.87
2022-12-05T00:57:40.331Z,31.63
2022-12-05T01:01:43.533Z,28.13
2022-12-05T01:05:46.285Z,28.63
2022-12-05T01:09:46.513Z,29.37
2022-12-05T01:13:47.330Z,27.53
2022-12-05T01:17:47.412Z,30.13
2022-12-05T01:21:50.294Z,27.70
2022-12-05T01:25:54.323Z,26.53
2022-12-05T01:29:54.709Z,29.10
2022-12-05T01:33:57.563Z,26.87
2022-12-05T01:38:00.696Z,27.47
2022-12-05T01:42:00.966Z,30.30
2022-12-05T01:46:01.376Z,30.37
2022-12-05T01:50:03.086Z,28.87
2022-12-05T01:54:08.768Z,27.53
2022-12-05T01:58:12.670Z,27.33
2022-12-05T02:02:16.525Z,32.07
2022-12-05T02:06:17.327Z,34.33
2022-12-05T02:10:21.219Z,28.97
2022-12-05T02:14:35.333Z,31.23
2022-12-05T02:19:00.068Z,33.33
2022-12-05T02:23:28.859Z,31.30
2022-12-05T02:28:18.999Z,30.30
2022-12-05T02:32:34.861Z,30.37
2022-12-05T02:36:43.554Z,33.03
2022-12-05T02:40:54.546Z,34.90
2022-12-05T02:45:02.999Z,37.00
2022-12-05T02:49:11.805Z,37.67
2022-12-05T02:53:18.501Z,37.27
2022-12-05T02:57:20.593Z,34.87
2022-12-05T03:01:22.606Z,33.17
2022-12-05T03:05:42.812Z,34.30
2022-12-05T03:09:51.045Z,35.17
2022-12-05T03:13:57.974Z,35.43
2022-12-05T03:18:04.666Z,40.03
2022-12-05T03:22:17.145Z,35.90
2022-12-05T03:26:35.016Z,37.13
2022-12-05T03:30:41.425Z,35.77
2022-12-05T03:34:56.100Z,41.67
2022-12-05T03:39:10.167Z,39.83
2022-12-05T03:43:16.181Z,39.00
2022-12-05T03:47:23.611Z,38.57
2022-12-05T03:51:31.093Z,40.23
2022-12-05T03:55:40.058Z,37.33
2022-12-05T03:59:47.713Z,38.47
2022-12-05T04:03:53.453Z,39.83
2022-12-05T04:08:02.219Z,42.03
2022-12-05T04:12:12.830Z,38.73
2022-12-05T04:16:34.268Z,40.67
2022-12-05T04:20:52.743Z,38.10
2022-12-05T04:25:07.866Z,38.47
2022-12-05T04:29:23.575Z,35.13
2022-12-05T04:33:36.228Z,36.67
2022-12-05T04:37:45.575Z,39.63
2022-12-05T04:41:53.228Z,37.50
2022-12-05T04:46:00.090Z,34.80
2022-12-05T04:50:02.785Z,36.50
2022-12-05T04:54:11.288Z,25.83
2022-12-05T04:58:15.643Z,24.37
2022-12-05T05:02:24.465Z,23.60
2022-12-05T05:06:24.650Z,25.53
2022-12-05T05:10:33.905Z,19.43
2022-12-05T05:14:34.226Z,18.67
2022-12-05T05:18:37.228Z,18.73
2022-12-05T05:22:37.436Z,17.20
2022-12-05T05:26:40.673Z,21.87
2022-12-05T05:30:40.883Z,17.23
2022-12-05T05:34:43.897Z,17.50
2022-12-05T05:38:46.927Z,14.50
2022-12-05T05:42:49.723Z,12.23
2022-12-05T05:46:49.849Z,13.03
2022-12-05T05:50:52.688Z,10.70
2022-12-05T05:54:52.817Z,10.10
2022-12-05T05:58:59.911Z,10.17
2022-12-05T06:03:00.104Z,10.30
2022-12-05T06:07:02.837Z,12.70
2022-12-05T06:11:07.237Z,11.20
2022-12-05T06:15:09.553Z,11.27
2022-12-05T06:19:09.631Z,10.57
2022-12-05T06:23:12.365Z,13.60
2022-12-05T06:27:12.472Z,11.70
2022-12-05T06:31:14.738Z,11.93
2022-12-05T06:35:18.355Z,10.93
2022-12-05T06:39:21.132Z,13.43
2022-12-05T06:43:21.276Z,11.37
2022-12-05T06:47:21.436Z,10.03
2022-12-05T06:51:21.862Z,13.13
2022-12-05T06:55:24.649Z,11.57
2022-12-05T06:59:25.058Z,12.17
2022-12-05T07:03:25.181Z,15.30
2022-12-05T07:07:25.749Z,11.70
2022-12-05T07:17:36.915Z,12.47
2022-12-05T07:21:55.540Z,14.27
2022-12-05T07:27:28.529Z,11.90
2022-12-05T07:31:34.393Z,13.17
2022-12-05T07:35:34.562Z,12.37
2022-12-05T07:39:35.492Z,12.27
2022-12-05T07:43:35.947Z,13.37
2022-12-05T07:47:38.781Z,12.87
2022-12-05T07:51:39.322Z,13.17
2022-12-05T07:55:41.227Z,10.80
2022-12-05T07:59:41.469Z,13.23
2022-12-05T08:03:46.287Z,10.27
2022-12-05T08:07:47.043Z,10.13
2022-12-05T08:11:52.527Z,10.87
2022-12-05T08:15:54.857Z,10.33
2022-12-05T08:19:59.662Z,11.13
2022-12-05T08:24:01.955Z,10.53
2022-12-05T08:28:03.782Z,11.57
2022-12-05T08:32:04.290Z,11.53
2022-12-05T08:36:10.692Z,10.90
2022-12-05T08:40:13.275Z,10.50
2022-12-05T08:44:17.219Z,10.00
2022-12-05T08:48:17.551Z,14.83
2022-12-05T08:52:25.798Z,10.33
2022-12-05T08:56:27.597Z,10.63
2022-12-05T09:00:28.479Z,15.07
2022-12-05T09:04:34.229Z,13.03
2022-12-05T09:08:42.967Z,13.83
2022-12-05T09:12:45.133Z,14.97
2022-12-05T09:17:02.405Z,15.40
2022-12-05T09:26:31.906Z,14.33
2022-12-05T09:31:41.429Z,13.20
2022-12-05T09:36:21.585Z,18.60
2022-12-05T09:41:09.815Z,18.80
2022-12-05T09:45:38.433Z,13.43
2022-12-05T09:49:59.218Z,12.97
2022-12-05T09:54:14.134Z,14.57
2022-12-05T09:58:42.432Z,14.57
2022-12-05T10:03:01.595Z,12.63
2022-12-05T10:07:19.565Z,12.00
2022-12-05T10:11:32.187Z,12.73
2022-12-05T10:15:46.330Z,12.33
2022-12-05T10:19:58.745Z,13.33
2022-12-05T10:24:18.228Z,12.00
2022-12-05T10:33:31.174Z,13.83
2022-12-05T10:38:07.526Z,14.13
2022-12-05T10:42:24.676Z,16.23
2022-12-05T10:46:27.616Z,12.80
2022-12-05T10:50:34.296Z,13.33
2022-12-05T10:54:47.405Z,15.23
2022-12-05T10:59:29.885Z,15.30
2022-12-05T11:03:35.670Z,15.90
2022-12-05T11:19:37.821Z,16.77
2022-12-05T11:23:59.808Z,14.47
2022-12-05T11:28:02.533Z,17.87
2022-12-05T11:32:03.644Z,14.00
2022-12-05T11:36:16.211Z,12.00
2022-12-05T11:40:32.730Z,10.80
2022-12-05T11:45:07.062Z,8.23
2022-12-05T11:49:29.052Z,8.87
2022-12-05T11:54:11.040Z,8.77
2022-12-05T11:58:43.976Z,9.87
2022-12-05T12:03:33.045Z,8.57
2022-12-05T12:07:59.307Z,9.73
2022-12-05T12:39:22.050Z,12.37
2022-12-05T12:49:24.001Z,14.00
2022-12-05T12:59:37.475Z,15.83
2022-12-05T13:04:25.827Z,13.80
2022-12-05T13:18:57.083Z,14.43
2022-12-05T13:28:55.665Z,14.83
2022-12-05T13:39:06.251Z,16.53
2022-12-05T13:43:16.157Z,15.43
2022-12-05T13:47:37.572Z,16.80
2022-12-05T13:51:49.080Z,19.73
2022-12-05T13:56:08.681Z,16.07
2022-12-05T14:00:30.451Z,15.50
2022-12-05T14:05:04.532Z,16.87
2022-12-05T14:09:42.177Z,26.67
2022-12-05T14:13:54.210Z,18.20
2022-12-05T14:18:21.425Z,16.70
2022-12-05T14:23:11.058Z,30.90
2022-12-05T14:27:34.847Z,21.13
2022-12-05T14:32:26.186Z,17.73
2022-12-05T14:41:37.511Z,19.17
2022-12-05T14:45:48.100Z,17.37
2022-12-05T14:50:25.320Z,16.47
2022-12-05T14:54:29.529Z,14.27
2022-12-05T14:58:43.424Z,13.20
2022-12-05T15:02:51.025Z,10.73
2022-12-05T15:07:16.380Z,10.50
2022-12-05T15:11:31.053Z,12.30
2022-12-05T15:15:43.946Z,11.50
2022-12-05T15:19:54.392Z,10.37
2022-12-05T15:24:01.686Z,18.40
2022-12-05T15:28:09.935Z,19.53
2022-12-05T15:32:21.597Z,17.67
2022-12-05T15:36:27.499Z,18.03
2022-12-05T15:40:33.963Z,14.47
2022-12-05T15:44:38.299Z,19.20
2022-12-05T15:48:38.687Z,25.53
2022-12-05T15:52:45.726Z,21.50
2022-12-05T15:56:51.751Z,24.07
2022-12-05T16:01:01.986Z,16.03
2022-12-05T16:05:03.868Z,17.37
2022-12-05T16:09:11.795Z,21.70
2022-12-05T16:13:18.876Z,19.50
2022-12-05T16:17:23.876Z,21.03
2022-12-05T16:21:38.929Z,19.03
2022-12-05T16:25:40.422Z,19.33
2022-12-05T16:29:40.590Z,26.73
2022-12-05T16:33:44.090Z,22.90
2022-12-05T16:37:44.421Z,21.50
2022-12-05T16:41:45.122Z,28.47
2022-12-05T16:45:48.074Z,18.83
2022-12-05T16:49:50.823Z,28.03
2022-12-05T16:53:54.693Z,28.00
2022-12-05T16:57:54.795Z,23.93
2022-12-05T17:01:54.962Z,29.37
2022-12-05T17:05:58.015Z,24.67
2022-12-05T17:09:58.172Z,34.80
2022-12-05T17:14:00.965Z,31.87
2022-12-05T17:18:01.612Z,29.83
2022-12-05T17:22:04.414Z,29.33
2022-12-05T17:26:05.052Z,33.67
2022-12-05T17:30:05.205Z,34.10
2022-12-05T17:34:16.381Z,30.90
2022-12-05T17:38:19.151Z,32.27
2022-12-05T17:42:19.237Z,28.67
2022-12-05T17:46:22.437Z,23.23
2022-12-05T17:50:25.514Z,26.67
2022-12-05T17:54:28.678Z,25.13
2022-12-05T17:58:28.898Z,27.30
2022-12-05T18:02:29.083Z,24.17
2022-12-05T18:06:29.409Z,31.83
2022-12-05T18:10:32.361Z,31.93
2022-12-05T18:14:36.138Z,30.97
2022-12-05T18:18:36.331Z,29.20
2022-12-05T18:22:36.460Z,30.47
2022-12-05T18:26:39.130Z,36.00
2022-12-05T18:30:39.235Z,40.53
2022-12-05T18:34:39.497Z,35.07
2022-12-05T18:38:40.823Z,30.70
2022-12-05T18:42:43.611Z,33.63
2022-12-05T18:46:43.786Z,28.70
2022-12-05T18:50:44.109Z,22.97
2022-12-05T18:54:45.986Z,20.60
2022-12-05T18:59:02.571Z,17.07
2022-12-05T19:03:06.602Z,15.80
2022-12-05T19:07:09.563Z,15.40
2022-12-05T19:11:10.198Z,16.10
2022-12-05T19:15:14.184Z,16.10
2022-12-05T19:19:17.495Z,15.27
2022-12-05T19:23:17.917Z,17.57
2022-12-05T19:27:18.232Z,14.00
2022-12-05T19:31:25.424Z,18.60
2022-12-05T19:35:25.562Z,13.83
2022-12-05T19:39:30.254Z,12.23
2022-12-05T19:43:33.470Z,13.03
2022-12-05T19:47:36.495Z,12.60
2022-12-05T19:51:38.063Z,16.03
2022-12-05T19:55:38.346Z,13.77
2022-12-05T19:59:38.648Z,14.87
2022-12-05T20:03:45.546Z,14.83
2022-12-05T20:07:45.806Z,14.27
2022-12-05T20:11:54.559Z,13.87
2022-12-05T20:15:55.961Z,16.13
2022-12-05T20:19:59.216Z,14.43
2022-12-05T20:24:02.443Z,17.33
2022-12-05T20:28:02.723Z,16.10
2022-12-05T20:32:02.937Z,16.00
2022-12-05T20:36:12.560Z,17.73
2022-12-05T20:40:13.551Z,18.03
2022-12-05T20:44:17.818Z,14.57
2022-12-05T20:48:17.893Z,15.57
2022-12-05T20:52:20.672Z,16.73
2022-12-05T20:56:23.304Z,20.43
2022-12-05T21:00:24.482Z,14.60
2022-12-05T21:04:24.717Z,14.50
2022-12-05T21:08:27.613Z,13.27
2022-12-05T21:12:27.801Z,15.93
2022-12-05T21:16:28.173Z,16.40
2022-12-05T21:20:28.752Z,16.17
2022-12-05T21:24:31.626Z,14.87
2022-12-05T21:28:33.610Z,17.00
2022-12-05T21:32:34.884Z,16.93
2022-12-05T21:36:38.369Z,16.83
2022-12-05T21:40:45.790Z,16.07
2022-12-05T21:44:46.096Z,15.93
2022-12-05T21:48:46.457Z,15.77
2022-12-05T21:52:46.583Z,17.60
2022-12-05T21:56:49.348Z,19.80
2022-12-05T22:00:49.476Z,19.63
2022-12-05T22:04:49.806Z,17.27
2022-12-05T22:08:49.960Z,16.53
2022-12-05T22:12:52.700Z,18.70
2022-12-05T22:16:53.555Z,19.70
2022-12-05T22:20:59.552Z,20.77
2022-12-05T22:25:00.031Z,19.53
2022-12-05T22:29:03.005Z,21.47
2022-12-05T22:33:03.125Z,21.93
2022-12-05T22:37:03.238Z,21.33
2022-12-05T22:41:08.604Z,21.77
2022-12-05T22:45:12.651Z,24.20
2022-12-05T22:49:13.842Z,21.20
2022-12-05T22:53:13.888Z,21.77
2022-12-05T22:57:14.275Z,22.43
2022-12-05T23:01:19.859Z,21.37
2022-12-05T23:05:20.186Z,18.13
2022-12-05T23:09:20.636Z,20.43
2022-12-05T23:13:20.923Z,21.87
2022-12-05T23:17:23.849Z,21.47
2022-12-05T23:21:29.518Z,21.03
2022-12-05T23:25:29.809Z,19.40
2022-12-05T23:29:30.072Z,18.77
2022-12-05T23:33:32.956Z,19.33
2022-12-05T23:37:33.327Z,20.10
2022-12-05T23:41:33.991Z,20.03
2022-12-05T23:45:34.276Z,18.50
2022-12-05T23:49:38.024Z,20.30
2022-12-05T23:53:41.648Z,22.13
2022-12-05T23:57:42.569Z,21.13
